sensor_id;sensor_type;location;lat;lon;timestamp;temperature;humidity
12841;DHT22;6487;48.626;12.486;2023-06-10T00:00:12;18.00;99.40
12841;DHT22;6487;48.626;12.486;2023-06-10T00:02:51;17.80;99.20
12841;DHT22;6487;48.626;12.486;2023-06-10T00:05:19;17.90;99.70
12841;DHT22;6487;48.626;12.486;2023-06-10T00:07:48;17.90;99.60
12841;DHT22;6487;48.626;12.486;2023-06-10T00:10:18;17.90;99.80
12841;DHT22;6487;48.626;12.486;2023-06-10T00:12:46;17.90;99.90
12841;DHT22;6487;48.626;12.486;2023-06-10T00:15:18;17.90;99.80
12841;DHT22;6487;48.626;12.486;2023-06-10T00:17:47;17.90;99.70
12841;DHT22;6487;48.626;12.486;2023-06-10T00:20:15;17.80;99.80
12841;DHT22;6487;48.626;12.486;2023-06-10T00:22:44;17.70;99.90
12841;DHT22;6487;48.626;12.486;2023-06-10T00:25:13;17.60;99.90
12841;DHT22;6487;48.626;12.486;2023-06-10T00:27:49;17.60;99.90
12841;DHT22;6487;48.626;12.486;2023-06-10T00:30:17;17.60;99.90
12841;DHT22;6487;48.626;12.486;2023-06-10T00:32:46;17.60;99.90
12841;DHT22;6487;48.626;12.486;2023-06-10T00:35:14;17.50;99.90
12841;DHT22;6487;48.626;12.486;2023-06-10T00:37:42;17.50;99.90
12841;DHT22;6487;48.626;12.486;2023-06-10T00:40:14;17.40;99.90
12841;DHT22;6487;48.626;12.486;2023-06-10T00:42:42;17.40;99.90
12841;DHT22;6487;48.626;12.486;2023-06-10T00:45:12;17.40;99.90
12841;DHT22;6487;48.626;12.486;2023-06-10T00:47:43;17.40;99.90
12841;DHT22;6487;48.626;12.486;2023-06-10T00:50:12;17.30;99.90
12841;DHT22;6487;48.626;12.486;2023-06-10T00:52:41;17.30;99.90
12841;DHT22;6487;48.626;12.486;2023-06-10T00:55:11;17.30;99.90
12841;DHT22;6487;48.626;12.486;2023-06-10T00:57:40;17.30;99.90
12841;DHT22;6487;48.626;12.486;2023-06-10T01:00:13;17.20;99.90
12841;DHT22;6487;48.626;12.486;2023-06-10T01:02:42;17.20;99.90
12841;DHT22;6487;48.626;12.486;2023-06-10T01:05:11;17.10;99.90
12841;DHT22;6487;48.626;12.486;2023-06-10T01:07:45;17.10;99.90
12841;DHT22;6487;48.626;12.486;2023-06-10T01:10:24;17.20;99.90
12841;DHT22;6487;48.626;12.486;2023-06-10T01:13:00;17.20;99.90
12841;DHT22;6487;48.626;12.486;2023-06-10T01:15:32;17.10;99.90
12841;DHT22;6487;48.626;12.486;2023-06-10T01:18:02;17.10;99.90
12841;DHT22;6487;48.626;12.486;2023-06-10T01:20:37;17.00;99.90
12841;DHT22;6487;48.626;12.486;2023-06-10T01:23:09;16.90;99.90
12841;DHT22;6487;48.626;12.486;2023-06-10T01:25:40;17.00;99.90
12841;DHT22;6487;48.626;12.486;2023-06-10T01:28:17;16.90;99.90
12841;DHT22;6487;48.626;12.486;2023-06-10T01:30:53;16.90;99.90
12841;DHT22;6487;48.626;12.486;2023-06-10T01:33:29;16.70;99.90
12841;DHT22;6487;48.626;12.486;2023-06-10T01:36:00;16.70;99.90
12841;DHT22;6487;48.626;12.486;2023-06-10T01:38:35;16.70;99.90
12841;DHT22;6487;48.626;12.486;2023-06-10T01:41:07;16.70;99.90
12841;DHT22;6487;48.626;12.486;2023-06-10T01:43:38;16.70;99.90
12841;DHT22;6487;48.626;12.486;2023-06-10T01:46:06;16.70;99.90
12841;DHT22;6487;48.626;12.486;2023-06-10T01:48:35;16.70;99.90
12841;DHT22;6487;48.626;12.486;2023-06-10T01:51:05;16.60;99.90
12841;DHT22;6487;48.626;12.486;2023-06-10T01:53:35;16.70;99.90
12841;DHT22;6487;48.626;12.486;2023-06-10T01:56:03;16.70;99.90
12841;DHT22;6487;48.626;12.486;2023-06-10T01:58:32;16.60;99.90
12841;DHT22;6487;48.626;12.486;2023-06-10T02:01:00;16.50;99.90
12841;DHT22;6487;48.626;12.486;2023-06-10T02:03:29;16.50;99.90
12841;DHT22;6487;48.626;12.486;2023-06-10T02:05:57;16.50;99.90
12841;DHT22;6487;48.626;12.486;2023-06-10T02:08:26;16.50;99.90
12841;DHT22;6487;48.626;12.486;2023-06-10T02:10:56;16.50;99.90
12841;DHT22;6487;48.626;12.486;2023-06-10T02:13:24;16.40;99.90
12841;DHT22;6487;48.626;12.486;2023-06-10T02:15:55;16.40;99.90
12841;DHT22;6487;48.626;12.486;2023-06-10T02:18:27;16.30;99.90
12841;DHT22;6487;48.626;12.486;2023-06-10T02:20:55;16.30;99.90
12841;DHT22;6487;48.626;12.486;2023-06-10T02:23:24;16.40;99.90
12841;DHT22;6487;48.626;12.486;2023-06-10T02:25:56;16.30;99.90
12841;DHT22;6487;48.626;12.486;2023-06-10T02:28:24;16.30;99.90
12841;DHT22;6487;48.626;12.486;2023-06-10T02:30:53;16.30;99.90
12841;DHT22;6487;48.626;12.486;2023-06-10T02:33:21;16.30;99.90
12841;DHT22;6487;48.626;12.486;2023-06-10T02:35:50;16.30;99.90
12841;DHT22;6487;48.626;12.486;2023-06-10T02:38:18;16.10;99.90
12841;DHT22;6487;48.626;12.486;2023-06-10T02:40:47;15.90;99.90
12841;DHT22;6487;48.626;12.486;2023-06-10T02:43:16;15.90;99.90
12841;DHT22;6487;48.626;12.486;2023-06-10T02:45:45;15.90;99.90
12841;DHT22;6487;48.626;12.486;2023-06-10T02:48:13;15.80;99.90
12841;DHT22;6487;48.626;12.486;2023-06-10T02:50:41;15.80;99.90
12841;DHT22;6487;48.626;12.486;2023-06-10T02:53:10;15.90;99.90
12841;DHT22;6487;48.626;12.486;2023-06-10T02:55:42;15.80;99.90
12841;DHT22;6487;48.626;12.486;2023-06-10T02:58:11;15.70;99.90
12841;DHT22;6487;48.626;12.486;2023-06-10T03:00:40;15.70;99.90
12841;DHT22;6487;48.626;12.486;2023-06-10T03:03:09;15.70;99.90
12841;DHT22;6487;48.626;12.486;2023-06-10T03:05:39;15.60;99.90
12841;DHT22;6487;48.626;12.486;2023-06-10T03:08:08;15.60;99.90
12841;DHT22;6487;48.626;12.486;2023-06-10T03:10:36;15.60;99.90
12841;DHT22;6487;48.626;12.486;2023-06-10T03:13:07;15.60;99.90
12841;DHT22;6487;48.626;12.486;2023-06-10T03:15:36;15.60;99.90
12841;DHT22;6487;48.626;12.486;2023-06-10T03:18:09;15.50;99.90
12841;DHT22;6487;48.626;12.486;2023-06-10T03:20:37;15.50;99.90
12841;DHT22;6487;48.626;12.486;2023-06-10T03:23:06;15.50;99.90
12841;DHT22;6487;48.626;12.486;2023-06-10T03:25:34;15.50;99.90
12841;DHT22;6487;48.626;12.486;2023-06-10T03:28:03;15.50;99.90
12841;DHT22;6487;48.626;12.486;2023-06-10T03:30:31;15.50;99.90
12841;DHT22;6487;48.626;12.486;2023-06-10T03:33:00;15.60;99.90
12841;DHT22;6487;48.626;12.486;2023-06-10T03:35:30;15.60;99.90
12841;DHT22;6487;48.626;12.486;2023-06-10T03:38:01;15.60;99.90
12841;DHT22;6487;48.626;12.486;2023-06-10T03:40:30;15.60;99.90
12841;DHT22;6487;48.626;12.486;2023-06-10T03:42:59;15.60;99.90
12841;DHT22;6487;48.626;12.486;2023-06-10T03:45:28;15.50;99.90
12841;DHT22;6487;48.626;12.486;2023-06-10T03:47:56;15.40;99.90
12841;DHT22;6487;48.626;12.486;2023-06-10T03:50:25;15.50;99.90
12841;DHT22;6487;48.626;12.486;2023-06-10T03:52:54;15.60;99.90
12841;DHT22;6487;48.626;12.486;2023-06-10T03:55:23;15.60;99.90
12841;DHT22;6487;48.626;12.486;2023-06-10T03:57:51;15.60;99.90
12841;DHT22;6487;48.626;12.486;2023-06-10T04:00:22;15.60;99.90
12841;DHT22;6487;48.626;12.486;2023-06-10T04:02:51;15.60;99.90
12841;DHT22;6487;48.626;12.486;2023-06-10T04:05:20;15.60;99.90
12841;DHT22;6487;48.626;12.486;2023-06-10T04:07:49;15.60;99.90
12841;DHT22;6487;48.626;12.486;2023-06-10T04:10:19;15.60;99.90
12841;DHT22;6487;48.626;12.486;2023-06-10T04:12:47;15.60;99.90
12841;DHT22;6487;48.626;12.486;2023-06-10T04:15:16;15.60;99.90
12841;DHT22;6487;48.626;12.486;2023-06-10T04:17:44;15.70;99.90
12841;DHT22;6487;48.626;12.486;2023-06-10T04:20:13;15.70;99.90
12841;DHT22;6487;48.626;12.486;2023-06-10T04:22:41;15.70;99.90
12841;DHT22;6487;48.626;12.486;2023-06-10T04:25:10;15.80;99.90
12841;DHT22;6487;48.626;12.486;2023-06-10T04:27:40;15.90;99.90
12841;DHT22;6487;48.626;12.486;2023-06-10T04:30:12;16.00;99.90
12841;DHT22;6487;48.626;12.486;2023-06-10T04:32:42;16.00;99.90
12841;DHT22;6487;48.626;12.486;2023-06-10T04:35:11;16.10;99.90
12841;DHT22;6487;48.626;12.486;2023-06-10T04:37:40;16.10;99.90
12841;DHT22;6487;48.626;12.486;2023-06-10T04:40:09;16.10;99.90
12841;DHT22;6487;48.626;12.486;2023-06-10T04:42:39;16.20;99.90
12841;DHT22;6487;48.626;12.486;2023-06-10T04:45:08;16.30;99.90
12841;DHT22;6487;48.626;12.486;2023-06-10T04:47:37;16.40;99.90
12841;DHT22;6487;48.626;12.486;2023-06-10T04:50:06;16.40;99.90
12841;DHT22;6487;48.626;12.486;2023-06-10T04:52:35;16.50;99.90
12841;DHT22;6487;48.626;12.486;2023-06-10T04:55:04;16.60;99.90
12841;DHT22;6487;48.626;12.486;2023-06-10T04:57:33;16.60;99.90
12841;DHT22;6487;48.626;12.486;2023-06-10T05:00:04;16.70;99.90
12841;DHT22;6487;48.626;12.486;2023-06-10T05:02:33;16.60;99.90
12841;DHT22;6487;48.626;12.486;2023-06-10T05:05:01;16.70;99.90
12841;DHT22;6487;48.626;12.486;2023-06-10T05:07:30;16.70;99.90
12841;DHT22;6487;48.626;12.486;2023-06-10T05:10:01;16.80;99.90
12841;DHT22;6487;48.626;12.486;2023-06-10T05:12:29;16.90;99.90
12841;DHT22;6487;48.626;12.486;2023-06-10T05:14:58;17.00;99.90
12841;DHT22;6487;48.626;12.486;2023-06-10T05:17:28;17.00;99.90
12841;DHT22;6487;48.626;12.486;2023-06-10T05:19:56;17.00;99.90
12841;DHT22;6487;48.626;12.486;2023-06-10T05:22:24;17.00;99.90
12841;DHT22;6487;48.626;12.486;2023-06-10T05:24:54;17.10;99.90
12841;DHT22;6487;48.626;12.486;2023-06-10T05:27:22;17.20;99.90
12841;DHT22;6487;48.626;12.486;2023-06-10T05:29:51;17.30;99.90
12841;DHT22;6487;48.626;12.486;2023-06-10T05:32:19;17.30;99.90
12841;DHT22;6487;48.626;12.486;2023-06-10T05:34:49;17.30;99.90
12841;DHT22;6487;48.626;12.486;2023-06-10T05:37:17;17.50;99.90
12841;DHT22;6487;48.626;12.486;2023-06-10T05:39:46;17.50;99.90
12841;DHT22;6487;48.626;12.486;2023-06-10T05:42:14;17.60;99.90
12841;DHT22;6487;48.626;12.486;2023-06-10T05:44:42;17.60;99.90
12841;DHT22;6487;48.626;12.486;2023-06-10T05:47:11;17.70;99.90
12841;DHT22;6487;48.626;12.486;2023-06-10T05:49:39;17.70;99.90
12841;DHT22;6487;48.626;12.486;2023-06-10T05:52:09;17.90;99.90
12841;DHT22;6487;48.626;12.486;2023-06-10T05:54:37;17.90;99.90
12841;DHT22;6487;48.626;12.486;2023-06-10T05:57:05;18.00;99.90
12841;DHT22;6487;48.626;12.486;2023-06-10T05:59:34;18.10;99.90
12841;DHT22;6487;48.626;12.486;2023-06-10T06:02:03;18.10;99.90
12841;DHT22;6487;48.626;12.486;2023-06-10T06:04:31;18.20;99.90
12841;DHT22;6487;48.626;12.486;2023-06-10T06:07:00;18.20;99.90
12841;DHT22;6487;48.626;12.486;2023-06-10T06:09:29;18.30;99.90
12841;DHT22;6487;48.626;12.486;2023-06-10T06:12:01;18.40;99.90
12841;DHT22;6487;48.626;12.486;2023-06-10T06:14:37;18.60;99.90
12841;DHT22;6487;48.626;12.486;2023-06-10T06:17:06;18.70;99.90
12841;DHT22;6487;48.626;12.486;2023-06-10T06:19:35;18.90;99.90
12841;DHT22;6487;48.626;12.486;2023-06-10T06:22:04;19.00;99.90
12841;DHT22;6487;48.626;12.486;2023-06-10T06:24:34;19.10;99.90
12841;DHT22;6487;48.626;12.486;2023-06-10T06:27:02;19.10;99.90
12841;DHT22;6487;48.626;12.486;2023-06-10T06:29:31;19.20;99.90
12841;DHT22;6487;48.626;12.486;2023-06-10T06:32:00;19.30;99.90
12841;DHT22;6487;48.626;12.486;2023-06-10T06:34:29;19.50;99.90
12841;DHT22;6487;48.626;12.486;2023-06-10T06:36:57;19.60;99.90
12841;DHT22;6487;48.626;12.486;2023-06-10T06:39:25;19.80;99.90
12841;DHT22;6487;48.626;12.486;2023-06-10T06:41:55;19.90;99.90
12841;DHT22;6487;48.626;12.486;2023-06-10T06:44:23;19.90;99.90
12841;DHT22;6487;48.626;12.486;2023-06-10T06:46:52;20.10;99.90
12841;DHT22;6487;48.626;12.486;2023-06-10T06:49:23;20.10;99.90
12841;DHT22;6487;48.626;12.486;2023-06-10T06:51:57;20.30;99.90
12841;DHT22;6487;48.626;12.486;2023-06-10T06:54:26;20.40;99.90
12841;DHT22;6487;48.626;12.486;2023-06-10T06:56:55;20.50;99.90
12841;DHT22;6487;48.626;12.486;2023-06-10T06:59:24;20.70;99.90
12841;DHT22;6487;48.626;12.486;2023-06-10T07:01:52;20.70;99.90
12841;DHT22;6487;48.626;12.486;2023-06-10T07:04:21;20.80;99.80
12841;DHT22;6487;48.626;12.486;2023-06-10T07:06:50;20.80;99.90
12841;DHT22;6487;48.626;12.486;2023-06-10T07:09:21;20.90;99.90
12841;DHT22;6487;48.626;12.486;2023-06-10T07:11:50;21.00;99.90
12841;DHT22;6487;48.626;12.486;2023-06-10T07:14:19;21.30;99.90
12841;DHT22;6487;48.626;12.486;2023-06-10T07:16:48;21.20;99.00
12841;DHT22;6487;48.626;12.486;2023-06-10T07:19:19;21.20;99.70
12841;DHT22;6487;48.626;12.486;2023-06-10T07:21:47;21.30;99.30
12841;DHT22;6487;48.626;12.486;2023-06-10T07:24:15;21.50;99.90
12841;DHT22;6487;48.626;12.486;2023-06-10T07:26:44;21.80;99.50
12841;DHT22;6487;48.626;12.486;2023-06-10T07:29:12;22.00;99.10
12841;DHT22;6487;48.626;12.486;2023-06-10T07:31:42;21.90;98.70
12841;DHT22;6487;48.626;12.486;2023-06-10T07:34:10;21.80;98.00
12841;DHT22;6487;48.626;12.486;2023-06-10T07:36:39;21.80;98.00
12841;DHT22;6487;48.626;12.486;2023-06-10T07:39:07;22.00;98.00
12841;DHT22;6487;48.626;12.486;2023-06-10T07:41:36;22.20;98.20
12841;DHT22;6487;48.626;12.486;2023-06-10T07:44:05;22.30;97.80
12841;DHT22;6487;48.626;12.486;2023-06-10T07:46:33;22.40;98.20
12841;DHT22;6487;48.626;12.486;2023-06-10T07:49:03;22.40;97.60
12841;DHT22;6487;48.626;12.486;2023-06-10T07:51:31;22.40;97.40
12841;DHT22;6487;48.626;12.486;2023-06-10T07:54:03;22.40;97.70
12841;DHT22;6487;48.626;12.486;2023-06-10T07:56:31;22.40;97.60
12841;DHT22;6487;48.626;12.486;2023-06-10T07:58:59;22.30;97.30
12841;DHT22;6487;48.626;12.486;2023-06-10T08:01:28;22.40;97.50
12841;DHT22;6487;48.626;12.486;2023-06-10T08:03:57;22.40;98.00
12841;DHT22;6487;48.626;12.486;2023-06-10T08:06:26;22.40;98.10
12841;DHT22;6487;48.626;12.486;2023-06-10T08:08:55;22.50;98.60
12841;DHT22;6487;48.626;12.486;2023-06-10T08:11:26;22.50;98.60
12841;DHT22;6487;48.626;12.486;2023-06-10T08:13:55;22.40;98.30
12841;DHT22;6487;48.626;12.486;2023-06-10T08:16:23;22.60;97.90
12841;DHT22;6487;48.626;12.486;2023-06-10T08:18:52;22.60;97.60
12841;DHT22;6487;48.626;12.486;2023-06-10T08:21:21;22.70;97.80
12841;DHT22;6487;48.626;12.486;2023-06-10T08:23:54;22.60;97.00
12841;DHT22;6487;48.626;12.486;2023-06-10T08:26:23;22.50;97.20
12841;DHT22;6487;48.626;12.486;2023-06-10T08:28:51;22.70;97.10
12841;DHT22;6487;48.626;12.486;2023-06-10T08:31:21;23.00;97.10
12841;DHT22;6487;48.626;12.486;2023-06-10T08:33:50;22.90;96.30
12841;DHT22;6487;48.626;12.486;2023-06-10T08:36:18;22.90;96.90
12841;DHT22;6487;48.626;12.486;2023-06-10T08:38:47;23.10;96.90
12841;DHT22;6487;48.626;12.486;2023-06-10T08:41:17;23.20;97.30
12841;DHT22;6487;48.626;12.486;2023-06-10T08:43:53;23.10;96.30
12841;DHT22;6487;48.626;12.486;2023-06-10T08:46:24;23.10;96.50
12841;DHT22;6487;48.626;12.486;2023-06-10T08:48:55;23.10;97.40
12841;DHT22;6487;48.626;12.486;2023-06-10T08:51:26;23.40;97.50
12841;DHT22;6487;48.626;12.486;2023-06-10T08:54:01;23.70;97.50
12841;DHT22;6487;48.626;12.486;2023-06-10T08:56:35;23.90;95.30
12841;DHT22;6487;48.626;12.486;2023-06-10T08:59:08;23.90;96.30
12841;DHT22;6487;48.626;12.486;2023-06-10T09:01:37;24.00;96.10
12841;DHT22;6487;48.626;12.486;2023-06-10T09:04:06;24.00;95.80
12841;DHT22;6487;48.626;12.486;2023-06-10T09:06:40;24.10;96.00
12841;DHT22;6487;48.626;12.486;2023-06-10T09:09:08;24.10;95.80
12841;DHT22;6487;48.626;12.486;2023-06-10T09:11:38;24.10;95.30
12841;DHT22;6487;48.626;12.486;2023-06-10T09:14:07;24.10;94.80
12841;DHT22;6487;48.626;12.486;2023-06-10T09:16:37;24.00;95.20
12841;DHT22;6487;48.626;12.486;2023-06-10T09:19:06;24.00;94.80
12841;DHT22;6487;48.626;12.486;2023-06-10T09:21:35;23.90;94.70
12841;DHT22;6487;48.626;12.486;2023-06-10T09:24:05;23.90;95.40
12841;DHT22;6487;48.626;12.486;2023-06-10T09:26:34;23.80;95.70
12841;DHT22;6487;48.626;12.486;2023-06-10T09:29:05;23.90;95.10
12841;DHT22;6487;48.626;12.486;2023-06-10T09:31:35;23.90;95.10
12841;DHT22;6487;48.626;12.486;2023-06-10T09:34:06;23.80;95.20
12841;DHT22;6487;48.626;12.486;2023-06-10T09:36:36;23.80;95.00
12841;DHT22;6487;48.626;12.486;2023-06-10T09:39:05;23.80;94.70
12841;DHT22;6487;48.626;12.486;2023-06-10T09:41:42;23.80;95.60
12841;DHT22;6487;48.626;12.486;2023-06-10T09:44:14;23.70;94.90
12841;DHT22;6487;48.626;12.486;2023-06-10T09:46:45;23.60;94.60
12841;DHT22;6487;48.626;12.486;2023-06-10T09:49:16;23.60;95.10
12841;DHT22;6487;48.626;12.486;2023-06-10T09:51:51;23.60;95.20
12841;DHT22;6487;48.626;12.486;2023-06-10T09:54:20;23.60;95.00
12841;DHT22;6487;48.626;12.486;2023-06-10T09:56:51;23.60;95.20
12841;DHT22;6487;48.626;12.486;2023-06-10T09:59:30;23.60;94.90
12841;DHT22;6487;48.626;12.486;2023-06-10T10:01:59;23.70;95.00
12841;DHT22;6487;48.626;12.486;2023-06-10T10:04:27;23.60;94.90
12841;DHT22;6487;48.626;12.486;2023-06-10T10:06:56;23.60;95.60
12841;DHT22;6487;48.626;12.486;2023-06-10T10:09:26;23.60;95.20
12841;DHT22;6487;48.626;12.486;2023-06-10T10:11:55;23.60;96.10
12841;DHT22;6487;48.626;12.486;2023-06-10T10:14:25;23.50;95.70
12841;DHT22;6487;48.626;12.486;2023-06-10T10:16:55;23.40;95.40
12841;DHT22;6487;48.626;12.486;2023-06-10T10:19:28;23.60;95.70
12841;DHT22;6487;48.626;12.486;2023-06-10T10:22:04;23.60;95.40
12841;DHT22;6487;48.626;12.486;2023-06-10T10:24:40;23.60;95.50
12841;DHT22;6487;48.626;12.486;2023-06-10T10:27:15;23.60;95.40
12841;DHT22;6487;48.626;12.486;2023-06-10T10:29:47;23.50;95.90
12841;DHT22;6487;48.626;12.486;2023-06-10T10:32:26;23.40;96.30
12841;DHT22;6487;48.626;12.486;2023-06-10T10:35:03;23.60;95.60
12841;DHT22;6487;48.626;12.486;2023-06-10T10:37:36;23.60;94.60
12841;DHT22;6487;48.626;12.486;2023-06-10T10:40:06;23.80;95.10
12841;DHT22;6487;48.626;12.486;2023-06-10T10:42:36;24.00;95.00
12841;DHT22;6487;48.626;12.486;2023-06-10T10:45:06;24.20;94.40
12841;DHT22;6487;48.626;12.486;2023-06-10T10:47:37;24.30;94.70
12841;DHT22;6487;48.626;12.486;2023-06-10T10:50:14;24.50;95.00
12841;DHT22;6487;48.626;12.486;2023-06-10T10:52:51;24.80;94.90
12841;DHT22;6487;48.626;12.486;2023-06-10T10:55:21;24.90;94.20
12841;DHT22;6487;48.626;12.486;2023-06-10T10:57:57;25.20;94.00
12841;DHT22;6487;48.626;12.486;2023-06-10T11:00:30;25.20;93.00
12841;DHT22;6487;48.626;12.486;2023-06-10T11:03:05;25.30;93.40
12841;DHT22;6487;48.626;12.486;2023-06-10T11:05:39;25.20;92.80
12841;DHT22;6487;48.626;12.486;2023-06-10T11:08:11;25.40;93.50
12841;DHT22;6487;48.626;12.486;2023-06-10T11:10:41;25.70;94.20
12841;DHT22;6487;48.626;12.486;2023-06-10T11:13:20;25.70;92.50
12841;DHT22;6487;48.626;12.486;2023-06-10T11:15:50;25.80;92.90
12841;DHT22;6487;48.626;12.486;2023-06-10T11:18:24;25.60;92.60
12841;DHT22;6487;48.626;12.486;2023-06-10T11:20:55;25.40;92.40
12841;DHT22;6487;48.626;12.486;2023-06-10T11:23:38;25.50;92.80
12841;DHT22;6487;48.626;12.486;2023-06-10T11:26:16;25.50;91.70
12841;DHT22;6487;48.626;12.486;2023-06-10T11:29:06;25.40;91.50
12841;DHT22;6487;48.626;12.486;2023-06-10T11:31:40;25.30;91.80
12841;DHT22;6487;48.626;12.486;2023-06-10T11:34:12;25.30;91.80
12841;DHT22;6487;48.626;12.486;2023-06-10T11:36:43;25.30;91.10
12841;DHT22;6487;48.626;12.486;2023-06-10T11:39:12;25.20;91.90
12841;DHT22;6487;48.626;12.486;2023-06-10T11:41:41;25.50;92.20
12841;DHT22;6487;48.626;12.486;2023-06-10T11:44:11;25.50;91.30
12841;DHT22;6487;48.626;12.486;2023-06-10T11:46:46;25.50;91.30
12841;DHT22;6487;48.626;12.486;2023-06-10T11:49:17;25.50;91.00
12841;DHT22;6487;48.626;12.486;2023-06-10T11:51:45;25.50;91.50
12841;DHT22;6487;48.626;12.486;2023-06-10T11:54:18;25.50;91.20
12841;DHT22;6487;48.626;12.486;2023-06-10T11:56:47;25.40;91.10
12841;DHT22;6487;48.626;12.486;2023-06-10T11:59:17;25.20;90.90
12841;DHT22;6487;48.626;12.486;2023-06-10T12:01:45;25.30;91.30
12841;DHT22;6487;48.626;12.486;2023-06-10T12:04:15;25.30;92.00
12841;DHT22;6487;48.626;12.486;2023-06-10T12:06:47;25.60;92.40
12841;DHT22;6487;48.626;12.486;2023-06-10T12:09:20;25.80;90.80
12841;DHT22;6487;48.626;12.486;2023-06-10T12:11:57;25.80;91.10
12841;DHT22;6487;48.626;12.486;2023-06-10T12:14:53;25.80;90.70
12841;DHT22;6487;48.626;12.486;2023-06-10T12:17:34;25.60;91.00
12841;DHT22;6487;48.626;12.486;2023-06-10T12:20:24;25.60;91.10
12841;DHT22;6487;48.626;12.486;2023-06-10T12:22:54;25.70;90.60
12841;DHT22;6487;48.626;12.486;2023-06-10T12:25:25;25.40;91.00
12841;DHT22;6487;48.626;12.486;2023-06-10T12:27:56;25.40;91.00
12841;DHT22;6487;48.626;12.486;2023-06-10T12:30:27;25.40;92.50
12841;DHT22;6487;48.626;12.486;2023-06-10T12:32:56;25.10;92.20
12841;DHT22;6487;48.626;12.486;2023-06-10T12:35:27;24.90;92.40
12841;DHT22;6487;48.626;12.486;2023-06-10T12:37:56;24.80;92.10
12841;DHT22;6487;48.626;12.486;2023-06-10T12:40:28;24.60;92.80
12841;DHT22;6487;48.626;12.486;2023-06-10T12:42:59;24.40;94.60
12841;DHT22;6487;48.626;12.486;2023-06-10T12:45:31;24.00;95.30
12841;DHT22;6487;48.626;12.486;2023-06-10T12:48:07;23.70;95.50
12841;DHT22;6487;48.626;12.486;2023-06-10T12:50:39;23.50;95.10
12841;DHT22;6487;48.626;12.486;2023-06-10T12:53:09;23.50;94.30
12841;DHT22;6487;48.626;12.486;2023-06-10T12:55:39;23.50;94.20
12841;DHT22;6487;48.626;12.486;2023-06-10T12:58:07;23.70;93.70
12841;DHT22;6487;48.626;12.486;2023-06-10T13:00:36;23.80;93.90
12841;DHT22;6487;48.626;12.486;2023-06-10T13:03:04;23.90;93.40
12841;DHT22;6487;48.626;12.486;2023-06-10T13:05:34;24.00;93.40
12841;DHT22;6487;48.626;12.486;2023-06-10T13:08:06;24.00;94.00
12841;DHT22;6487;48.626;12.486;2023-06-10T13:10:37;24.10;94.40
12841;DHT22;6487;48.626;12.486;2023-06-10T13:13:05;24.00;93.30
12841;DHT22;6487;48.626;12.486;2023-06-10T13:15:36;24.10;93.30
12841;DHT22;6487;48.626;12.486;2023-06-10T13:18:09;24.10;92.80
12841;DHT22;6487;48.626;12.486;2023-06-10T13:20:39;24.20;93.30
12841;DHT22;6487;48.626;12.486;2023-06-10T13:23:08;24.30;93.20
12841;DHT22;6487;48.626;12.486;2023-06-10T13:25:37;24.60;94.50
12841;DHT22;6487;48.626;12.486;2023-06-10T13:28:07;24.80;94.00
12841;DHT22;6487;48.626;12.486;2023-06-10T13:30:36;25.10;93.40
12841;DHT22;6487;48.626;12.486;2023-06-10T13:33:07;25.30;93.10
12841;DHT22;6487;48.626;12.486;2023-06-10T13:35:35;25.50;93.00
12841;DHT22;6487;48.626;12.486;2023-06-10T13:38:04;25.60;93.30
12841;DHT22;6487;48.626;12.486;2023-06-10T13:40:35;25.50;92.70
12841;DHT22;6487;48.626;12.486;2023-06-10T13:43:03;25.60;93.20
12841;DHT22;6487;48.626;12.486;2023-06-10T13:45:32;25.90;92.70
12841;DHT22;6487;48.626;12.486;2023-06-10T13:48:00;26.20;93.30
12841;DHT22;6487;48.626;12.486;2023-06-10T13:50:30;26.50;92.10
12841;DHT22;6487;48.626;12.486;2023-06-10T13:52:58;26.70;93.20
12841;DHT22;6487;48.626;12.486;2023-06-10T13:55:30;26.90;92.60
12841;DHT22;6487;48.626;12.486;2023-06-10T13:58:00;27.10;91.80
12841;DHT22;6487;48.626;12.486;2023-06-10T14:00:28;27.10;90.90
12841;DHT22;6487;48.626;12.486;2023-06-10T14:02:57;27.30;90.40
12841;DHT22;6487;48.626;12.486;2023-06-10T14:05:25;27.50;90.80
12841;DHT22;6487;48.626;12.486;2023-06-10T14:07:57;27.40;89.50
12841;DHT22;6487;48.626;12.486;2023-06-10T14:10:25;27.50;90.50
12841;DHT22;6487;48.626;12.486;2023-06-10T14:12:54;27.40;91.20
12841;DHT22;6487;48.626;12.486;2023-06-10T14:15:24;27.40;91.40
12841;DHT22;6487;48.626;12.486;2023-06-10T14:17:52;27.20;90.90
12841;DHT22;6487;48.626;12.486;2023-06-10T14:20:21;27.00;89.40
12841;DHT22;6487;48.626;12.486;2023-06-10T14:22:50;26.70;90.30
12841;DHT22;6487;48.626;12.486;2023-06-10T14:25:18;26.50;90.00
12841;DHT22;6487;48.626;12.486;2023-06-10T14:27:46;26.50;90.80
12841;DHT22;6487;48.626;12.486;2023-06-10T14:30:15;26.40;90.40
12841;DHT22;6487;48.626;12.486;2023-06-10T14:32:45;26.30;89.90
12841;DHT22;6487;48.626;12.486;2023-06-10T14:35:13;26.30;90.10
12841;DHT22;6487;48.626;12.486;2023-06-10T14:37:42;26.00;91.70
12841;DHT22;6487;48.626;12.486;2023-06-10T14:40:10;26.00;92.20
12841;DHT22;6487;48.626;12.486;2023-06-10T14:42:39;25.80;92.30
12841;DHT22;6487;48.626;12.486;2023-06-10T14:45:11;25.70;92.30
12841;DHT22;6487;48.626;12.486;2023-06-10T14:47:41;25.60;92.70
12841;DHT22;6487;48.626;12.486;2023-06-10T14:50:11;25.50;92.90
12841;DHT22;6487;48.626;12.486;2023-06-10T14:52:40;25.40;93.00
12841;DHT22;6487;48.626;12.486;2023-06-10T14:55:11;25.40;93.00
12841;DHT22;6487;48.626;12.486;2023-06-10T14:57:39;25.20;93.70
12841;DHT22;6487;48.626;12.486;2023-06-10T15:00:09;25.30;93.30
12841;DHT22;6487;48.626;12.486;2023-06-10T15:02:38;25.30;93.60
12841;DHT22;6487;48.626;12.486;2023-06-10T15:05:07;25.40;93.90
12841;DHT22;6487;48.626;12.486;2023-06-10T15:07:37;25.20;94.20
12841;DHT22;6487;48.626;12.486;2023-06-10T15:10:06;25.00;94.80
12841;DHT22;6487;48.626;12.486;2023-06-10T15:12:35;24.90;94.50
12841;DHT22;6487;48.626;12.486;2023-06-10T15:15:04;24.70;94.90
12841;DHT22;6487;48.626;12.486;2023-06-10T15:17:33;24.70;94.80
12841;DHT22;6487;48.626;12.486;2023-06-10T15:20:02;24.50;94.50
12841;DHT22;6487;48.626;12.486;2023-06-10T15:22:34;24.40;95.10
12841;DHT22;6487;48.626;12.486;2023-06-10T15:25:04;24.40;95.20
12841;DHT22;6487;48.626;12.486;2023-06-10T15:27:54;24.40;95.60
12841;DHT22;6487;48.626;12.486;2023-06-10T15:30:22;24.40;95.30
12841;DHT22;6487;48.626;12.486;2023-06-10T15:32:51;24.20;95.70
12841;DHT22;6487;48.626;12.486;2023-06-10T15:35:20;24.20;95.60
12841;DHT22;6487;48.626;12.486;2023-06-10T15:37:48;24.10;95.40
12841;DHT22;6487;48.626;12.486;2023-06-10T15:40:18;24.20;95.20
12841;DHT22;6487;48.626;12.486;2023-06-10T15:42:47;23.90;94.90
12841;DHT22;6487;48.626;12.486;2023-06-10T15:45:16;23.90;95.00
12841;DHT22;6487;48.626;12.486;2023-06-10T15:47:44;23.90;95.40